sensor_id;sensor_type;location;lat;lon;timestamp;pressure;altitude;pressure_sealevel;temperature;humidity
76603;BME280;65075;48.390;17.598;2023-06-22T00:01:06;100067.78;;;21.81;76.03
76603;BME280;65075;48.390;17.598;2023-06-22T00:03:33;100069.59;;;21.77;77.61
76603;BME280;65075;48.390;17.598;2023-06-22T00:06:00;100050.94;;;21.94;76.56
76603;BME280;65075;48.390;17.598;2023-06-22T00:08:26;100057.47;;;23.60;68.94
76603;BME280;65075;48.390;17.598;2023-06-22T00:10:53;100070.28;;;23.20;72.19
76603;BME280;65075;48.390;17.598;2023-06-22T00:13:19;100058.34;;;21.73;77.16
76603;BME280;65075;48.390;17.598;2023-06-22T00:15:46;100074.91;;;21.27;79.21
76603;BME280;65075;48.390;17.598;2023-06-22T00:18:13;100068.53;;;21.43;78.70
76603;BME280;65075;48.390;17.598;2023-06-22T00:20:41;100068.59;;;21.81;76.07
76603;BME280;65075;48.390;17.598;2023-06-22T00:23:08;100067.56;;;21.39;79.91
76603;BME280;65075;48.390;17.598;2023-06-22T00:25:35;100059.94;;;21.83;77.83
76603;BME280;65075;48.390;17.598;2023-06-22T00:28:03;100060.47;;;23.34;71.13
76603;BME280;65075;48.390;17.598;2023-06-22T00:30:34;100056.59;;;22.94;72.48
76603;BME280;65075;48.390;17.598;2023-06-22T00:33:01;100057.34;;;21.69;77.02
76603;BME280;65075;48.390;17.598;2023-06-22T00:35:29;100052.28;;;21.88;75.66
76603;BME280;65075;48.390;17.598;2023-06-22T00:37:59;100045.97;;;21.62;77.98
76603;BME280;65075;48.390;17.598;2023-06-22T00:40:32;100043.69;;;25.25;64.16
76603;BME280;65075;48.390;17.598;2023-06-22T00:42:59;100047.13;;;25.06;64.31
76603;BME280;65075;48.390;17.598;2023-06-22T00:45:29;100047.22;;;23.97;67.29
76603;BME280;65075;48.390;17.598;2023-06-22T00:47:57;100044.78;;;24.32;67.06
76603;BME280;65075;48.390;17.598;2023-06-22T00:50:35;100049.91;;;26.36;58.68
76603;BME280;65075;48.390;17.598;2023-06-22T00:53:07;100058.31;;;26.87;57.00
76603;BME280;65075;48.390;17.598;2023-06-22T00:55:41;100053.34;;;26.45;58.17
76603;BME280;65075;48.390;17.598;2023-06-22T00:58:14;100053.66;;;26.59;58.12
76603;BME280;65075;48.390;17.598;2023-06-22T01:00:41;100055.16;;;26.72;56.88
76603;BME280;65075;48.390;17.598;2023-06-22T01:03:08;100063.06;;;24.29;64.18
76603;BME280;65075;48.390;17.598;2023-06-22T01:05:36;100053.88;;;21.81;74.71
76603;BME280;65075;48.390;17.598;2023-06-22T01:08:07;100054.28;;;21.62;75.70
76603;BME280;65075;48.390;17.598;2023-06-22T01:10:59;100054.44;;;24.10;66.55
76603;BME280;65075;48.390;17.598;2023-06-22T01:14:10;100050.97;;;22.53;71.91
76603;BME280;65075;48.390;17.598;2023-06-22T01:16:41;100050.69;;;24.91;62.90
76603;BME280;65075;48.390;17.598;2023-06-22T01:19:39;100042.28;;;25.58;60.14
76603;BME280;65075;48.390;17.598;2023-06-22T01:22:25;100033.78;;;26.64;55.98
76603;BME280;65075;48.390;17.598;2023-06-22T01:25:20;100044.81;;;26.57;56.55
76603;BME280;65075;48.390;17.598;2023-06-22T01:30:45;100039.22;;;21.80;72.49
76603;BME280;65075;48.390;17.598;2023-06-22T01:33:14;100022.81;;;21.06;75.98
76603;BME280;65075;48.390;17.598;2023-06-22T01:35:44;100028.25;;;20.94;78.52
76603;BME280;65075;48.390;17.598;2023-06-22T01:38:11;100028.44;;;24.30;64.30
76603;BME280;65075;48.390;17.598;2023-06-22T01:40:38;100024.19;;;24.85;62.51
76603;BME280;65075;48.390;17.598;2023-06-22T01:43:05;100030.91;;;25.24;60.84
76603;BME280;65075;48.390;17.598;2023-06-22T01:45:33;100026.94;;;25.52;59.62
76603;BME280;65075;48.390;17.598;2023-06-22T01:48:01;100019.31;;;25.10;60.66
76603;BME280;65075;48.390;17.598;2023-06-22T01:50:29;100003.28;;;26.25;56.82
76603;BME280;65075;48.390;17.598;2023-06-22T01:52:56;100013.06;;;26.34;56.06
76603;BME280;65075;48.390;17.598;2023-06-22T01:55:23;100027.00;;;26.15;56.99
76603;BME280;65075;48.390;17.598;2023-06-22T01:57:50;100024.25;;;25.72;57.42
76603;BME280;65075;48.390;17.598;2023-06-22T02:00:21;100013.00;;;26.15;56.96
76603;BME280;65075;48.390;17.598;2023-06-22T02:03:17;100016.94;;;25.51;59.28
76603;BME280;65075;48.390;17.598;2023-06-22T02:06:42;100012.66;;;26.51;55.92
76603;BME280;65075;48.390;17.598;2023-06-22T02:08:57;100018.28;;;26.51;55.94
76603;BME280;65075;48.390;17.598;2023-06-22T02:11:28;99998.66;;;26.01;57.04
76603;BME280;65075;48.390;17.598;2023-06-22T02:14:06;100006.88;;;25.63;58.63
76603;BME280;65075;48.390;17.598;2023-06-22T02:16:35;100010.38;;;25.04;59.90
76603;BME280;65075;48.390;17.598;2023-06-22T02:19:02;99994.59;;;20.87;75.51
76603;BME280;65075;48.390;17.598;2023-06-22T02:21:30;100011.50;;;23.66;64.85
76603;BME280;65075;48.390;17.598;2023-06-22T02:24:01;100020.94;;;24.59;62.24
76603;BME280;65075;48.390;17.598;2023-06-22T02:26:28;100019.13;;;25.30;59.61
76603;BME280;65075;48.390;17.598;2023-06-22T02:28:54;100008.97;;;25.10;59.47
76603;BME280;65075;48.390;17.598;2023-06-22T02:31:21;100013.44;;;24.23;61.85
76603;BME280;65075;48.390;17.598;2023-06-22T02:33:48;100020.38;;;25.33;59.35
76603;BME280;65075;48.390;17.598;2023-06-22T02:36:15;100023.09;;;26.04;56.76
76603;BME280;65075;48.390;17.598;2023-06-22T02:38:43;100018.41;;;25.06;58.90
76603;BME280;65075;48.390;17.598;2023-06-22T02:41:15;100007.97;;;25.74;56.66
76603;BME280;65075;48.390;17.598;2023-06-22T02:43:48;100021.78;;;25.11;57.88
76603;BME280;65075;48.390;17.598;2023-06-22T02:46:14;100009.13;;;25.57;57.27
76603;BME280;65075;48.390;17.598;2023-06-22T02:48:40;100021.16;;;25.45;57.59
76603;BME280;65075;48.390;17.598;2023-06-22T02:51:07;100022.78;;;25.19;57.42
76603;BME280;65075;48.390;17.598;2023-06-22T02:53:34;100035.06;;;25.02;58.47
76603;BME280;65075;48.390;17.598;2023-06-22T02:56:02;100036.78;;;24.30;61.03
76603;BME280;65075;48.390;17.598;2023-06-22T02:58:32;100032.28;;;23.57;63.51
76603;BME280;65075;48.390;17.598;2023-06-22T03:01:06;100019.38;;;23.19;64.01
76603;BME280;65075;48.390;17.598;2023-06-22T03:03:32;100017.28;;;22.25;67.46
76603;BME280;65075;48.390;17.598;2023-06-22T03:06:20;100035.81;;;22.92;64.94
76603;BME280;65075;48.390;17.598;2023-06-22T03:08:50;100032.94;;;22.59;66.69
76603;BME280;65075;48.390;17.598;2023-06-22T03:11:17;100032.56;;;21.55;70.72
76603;BME280;65075;48.390;17.598;2023-06-22T03:13:44;100018.41;;;21.95;68.86
76603;BME280;65075;48.390;17.598;2023-06-22T03:16:31;100022.84;;;21.15;72.27
76603;BME280;65075;48.390;17.598;2023-06-22T03:18:57;100027.06;;;21.04;72.20
76603;BME280;65075;48.390;17.598;2023-06-22T03:21:28;100006.88;;;21.67;70.38
76603;BME280;65075;48.390;17.598;2023-06-22T03:23:55;100020.84;;;21.96;69.06
76603;BME280;65075;48.390;17.598;2023-06-22T03:26:22;100032.41;;;22.86;65.91
76603;BME280;65075;48.390;17.598;2023-06-22T03:29:09;100033.69;;;23.63;63.07
76603;BME280;65075;48.390;17.598;2023-06-22T03:31:36;100038.03;;;23.40;64.42
76603;BME280;65075;48.390;17.598;2023-06-22T03:34:02;100039.91;;;24.53;60.59
76603;BME280;65075;48.390;17.598;2023-06-22T03:36:29;100041.53;;;25.06;59.08
76603;BME280;65075;48.390;17.598;2023-06-22T03:38:56;100031.78;;;25.00;58.79
76603;BME280;65075;48.390;17.598;2023-06-22T03:41:22;100031.53;;;23.92;61.84
76603;BME280;65075;48.390;17.598;2023-06-22T03:43:50;100043.53;;;23.27;64.64
76603;BME280;65075;48.390;17.598;2023-06-22T03:46:17;100033.38;;;23.76;62.85
76603;BME280;65075;48.390;17.598;2023-06-22T03:48:44;100038.38;;;21.88;68.76
76603;BME280;65075;48.390;17.598;2023-06-22T03:51:10;100035.00;;;22.91;66.89
76603;BME280;65075;48.390;17.598;2023-06-22T03:53:37;100045.34;;;23.23;65.51
76603;BME280;65075;48.390;17.598;2023-06-22T03:56:04;100045.56;;;22.98;65.95
76603;BME280;65075;48.390;17.598;2023-06-22T03:58:31;100048.16;;;21.94;69.24
76603;BME280;65075;48.390;17.598;2023-06-22T04:00:59;100052.28;;;21.88;70.18
76603;BME280;65075;48.390;17.598;2023-06-22T04:03:29;100052.41;;;22.30;68.50
76603;BME280;65075;48.390;17.598;2023-06-22T04:05:56;100051.13;;;21.72;71.76
76603;BME280;65075;48.390;17.598;2023-06-22T04:08:23;100057.44;;;21.09;75.40
76603;BME280;65075;48.390;17.598;2023-06-22T04:10:49;100058.06;;;22.92;67.23
76603;BME280;65075;48.390;17.598;2023-06-22T04:13:16;100061.84;;;21.36;72.75
76603;BME280;65075;48.390;17.598;2023-06-22T04:15:43;100059.56;;;22.89;67.19
76603;BME280;65075;48.390;17.598;2023-06-22T04:18:10;100051.13;;;23.84;64.12
76603;BME280;65075;48.390;17.598;2023-06-22T04:20:37;100060.16;;;25.14;60.74
76603;BME280;65075;48.390;17.598;2023-06-22T04:23:03;100062.19;;;23.92;64.91
76603;BME280;65075;48.390;17.598;2023-06-22T04:25:30;100059.53;;;24.81;61.74
76603;BME280;65075;48.390;17.598;2023-06-22T04:27:56;100052.81;;;25.37;59.46
76603;BME280;65075;48.390;17.598;2023-06-22T04:30:23;100065.81;;;24.90;61.26
76603;BME280;65075;48.390;17.598;2023-06-22T04:32:50;100069.72;;;26.00;58.72
76603;BME280;65075;48.390;17.598;2023-06-22T04:35:22;100066.38;;;26.88;55.15
76603;BME280;65075;48.390;17.598;2023-06-22T04:37:49;100073.13;;;26.71;55.67
76603;BME280;65075;48.390;17.598;2023-06-22T04:40:17;100067.63;;;26.75;55.71
76603;BME280;65075;48.390;17.598;2023-06-22T04:42:53;100089.13;;;25.93;58.28
76603;BME280;65075;48.390;17.598;2023-06-22T04:45:21;100082.97;;;27.16;54.83
76603;BME280;65075;48.390;17.598;2023-06-22T04:47:49;100082.28;;;26.06;57.69
76603;BME280;65075;48.390;17.598;2023-06-22T04:50:16;100083.22;;;25.39;60.72
76603;BME280;65075;48.390;17.598;2023-06-22T04:52:42;100064.59;;;22.96;69.15
76603;BME280;65075;48.390;17.598;2023-06-22T04:55:08;100071.03;;;25.31;61.66
76603;BME280;65075;48.390;17.598;2023-06-22T04:57:35;100071.75;;;25.99;60.15
76603;BME280;65075;48.390;17.598;2023-06-22T05:00:04;100070.47;;;25.97;59.76
76603;BME280;65075;48.390;17.598;2023-06-22T05:02:44;100067.31;;;24.99;62.26
76603;BME280;65075;48.390;17.598;2023-06-22T05:05:15;100047.00;;;24.02;67.22
76603;BME280;65075;48.390;17.598;2023-06-22T05:07:56;100063.94;;;24.09;65.68
76603;BME280;65075;48.390;17.598;2023-06-22T05:10:27;100074.53;;;26.62;58.20
76603;BME280;65075;48.390;17.598;2023-06-22T05:12:54;100083.41;;;25.18;62.42
76603;BME280;65075;48.390;17.598;2023-06-22T05:15:21;100077.09;;;27.59;54.93
76603;BME280;65075;48.390;17.598;2023-06-22T05:17:53;100077.78;;;27.37;56.22
76603;BME280;65075;48.390;17.598;2023-06-22T05:20:20;100079.44;;;27.19;56.89
76603;BME280;65075;48.390;17.598;2023-06-22T05:22:48;100081.50;;;27.22;56.47
76603;BME280;65075;48.390;17.598;2023-06-22T05:25:15;100088.00;;;26.91;57.89
76603;BME280;65075;48.390;17.598;2023-06-22T05:27:41;100069.78;;;25.56;61.62
76603;BME280;65075;48.390;17.598;2023-06-22T05:30:10;100083.25;;;27.30;56.43
76603;BME280;65075;48.390;17.598;2023-06-22T05:32:38;100078.34;;;25.08;62.71
76603;BME280;65075;48.390;17.598;2023-06-22T05:35:05;100074.47;;;26.78;58.97
76603;BME280;65075;48.390;17.598;2023-06-22T05:37:33;100078.22;;;26.82;58.41
76603;BME280;65075;48.390;17.598;2023-06-22T05:40:00;100086.25;;;26.67;59.58
76603;BME280;65075;48.390;17.598;2023-06-22T05:42:28;100082.38;;;27.26;56.74
76603;BME280;65075;48.390;17.598;2023-06-22T05:44:53;100096.19;;;26.81;57.44
76603;BME280;65075;48.390;17.598;2023-06-22T05:47:20;100091.88;;;26.36;57.74
76603;BME280;65075;48.390;17.598;2023-06-22T05:49:49;100098.69;;;27.40;55.23
76603;BME280;65075;48.390;17.598;2023-06-22T05:52:14;100085.31;;;27.91;53.60
76603;BME280;65075;48.390;17.598;2023-06-22T05:54:41;100096.44;;;27.45;54.82
76603;BME280;65075;48.390;17.598;2023-06-22T05:57:09;100092.72;;;27.79;53.46
76603;BME280;65075;48.390;17.598;2023-06-22T05:59:36;100086.00;;;28.78;51.92
76603;BME280;65075;48.390;17.598;2023-06-22T06:02:03;100090.75;;;28.74;51.69
76603;BME280;65075;48.390;17.598;2023-06-22T06:04:33;100093.00;;;26.66;57.88
76603;BME280;65075;48.390;17.598;2023-06-22T06:07:01;100100.09;;;27.30;56.82
76603;BME280;65075;48.390;17.598;2023-06-22T06:09:28;100107.59;;;29.27;50.11
76603;BME280;65075;48.390;17.598;2023-06-22T06:11:54;100076.94;;;28.62;51.88
76603;BME280;65075;48.390;17.598;2023-06-22T06:14:21;100102.47;;;26.78;57.63
76603;BME280;65075;48.390;17.598;2023-06-22T06:16:48;100099.94;;;27.61;53.58
76603;BME280;65075;48.390;17.598;2023-06-22T06:19:15;100096.97;;;28.87;52.31
76603;BME280;65075;48.390;17.598;2023-06-22T06:21:42;100100.50;;;27.13;56.28
76603;BME280;65075;48.390;17.598;2023-06-22T06:24:09;100106.72;;;27.79;53.25
76603;BME280;65075;48.390;17.598;2023-06-22T06:26:35;100073.88;;;28.03;52.52
76603;BME280;65075;48.390;17.598;2023-06-22T06:29:03;100109.13;;;28.68;52.42
76603;BME280;65075;48.390;17.598;2023-06-22T06:31:29;100111.94;;;28.46;52.71
76603;BME280;65075;48.390;17.598;2023-06-22T06:33:56;100101.84;;;28.41;53.34
76603;BME280;65075;48.390;17.598;2023-06-22T06:36:22;100106.66;;;29.49;49.49
76603;BME280;65075;48.390;17.598;2023-06-22T06:38:48;100103.09;;;27.21;57.14
76603;BME280;65075;48.390;17.598;2023-06-22T06:41:16;100106.34;;;29.87;50.71
76603;BME280;65075;48.390;17.598;2023-06-22T06:43:43;100113.53;;;30.22;47.66
76603;BME280;65075;48.390;17.598;2023-06-22T06:46:10;100094.03;;;28.76;53.20
76603;BME280;65075;48.390;17.598;2023-06-22T06:48:38;100076.44;;;29.39;50.67
76603;BME280;65075;48.390;17.598;2023-06-22T06:51:05;100097.66;;;31.91;44.22
76603;BME280;65075;48.390;17.598;2023-06-22T06:53:39;100103.59;;;33.56;40.67
76603;BME280;65075;48.390;17.598;2023-06-22T06:56:06;100103.25;;;31.66;42.31
76603;BME280;65075;48.390;17.598;2023-06-22T06:58:31;100098.31;;;31.46;43.05
76603;BME280;65075;48.390;17.598;2023-06-22T07:00:58;100104.03;;;33.58;39.58
76603;BME280;65075;48.390;17.598;2023-06-22T07:03:25;100105.09;;;34.43;37.65
76603;BME280;65075;48.390;17.598;2023-06-22T07:05:52;100096.75;;;34.26;37.47
76603;BME280;65075;48.390;17.598;2023-06-22T07:08:18;100094.75;;;31.52;42.70
76603;BME280;65075;48.390;17.598;2023-06-22T07:10:45;100085.22;;;32.31;41.87
76603;BME280;65075;48.390;17.598;2023-06-22T07:13:12;100094.88;;;31.01;45.25
76603;BME280;65075;48.390;17.598;2023-06-22T07:15:38;100082.78;;;32.51;39.95
76603;BME280;65075;48.390;17.598;2023-06-22T07:18:05;100069.25;;;35.08;35.49
76603;BME280;65075;48.390;17.598;2023-06-22T07:20:32;100071.09;;;35.86;35.06
76603;BME280;65075;48.390;17.598;2023-06-22T07:22:58;100093.66;;;34.61;37.71
76603;BME280;65075;48.390;17.598;2023-06-22T07:25:25;100093.88;;;34.29;37.10
76603;BME280;65075;48.390;17.598;2023-06-22T07:28:03;100091.31;;;34.45;35.85
76603;BME280;65075;48.390;17.598;2023-06-22T07:30:31;100080.34;;;33.96;37.39
76603;BME280;65075;48.390;17.598;2023-06-22T07:32:58;100088.16;;;30.62;45.71
76603;BME280;65075;48.390;17.598;2023-06-22T07:35:33;100080.41;;;31.06;45.37
76603;BME280;65075;48.390;17.598;2023-06-22T07:37:59;100077.78;;;33.43;37.85
76603;BME280;65075;48.390;17.598;2023-06-22T07:40:26;100085.13;;;34.03;36.36
76603;BME280;65075;48.390;17.598;2023-06-22T07:42:53;100094.47;;;34.55;36.69
76603;BME280;65075;48.390;17.598;2023-06-22T07:45:20;100090.91;;;32.42;41.35
76603;BME280;65075;48.390;17.598;2023-06-22T07:47:46;100086.88;;;32.67;41.51
76603;BME280;65075;48.390;17.598;2023-06-22T07:50:13;100084.00;;;32.04;40.02
76603;BME280;65075;48.390;17.598;2023-06-22T07:52:40;100083.22;;;32.81;40.15
76603;BME280;65075;48.390;17.598;2023-06-22T07:55:07;100070.47;;;35.44;34.76
76603;BME280;65075;48.390;17.598;2023-06-22T07:57:34;100076.34;;;33.90;37.97
76603;BME280;65075;48.390;17.598;2023-06-22T08:00:02;100082.03;;;34.89;35.12
76603;BME280;65075;48.390;17.598;2023-06-22T08:02:33;100091.00;;;34.84;34.93
76603;BME280;65075;48.390;17.598;2023-06-22T08:05:00;100079.59;;;35.25;34.92
76603;BME280;65075;48.390;17.598;2023-06-22T08:07:26;100083.94;;;34.55;36.89
76603;BME280;65075;48.390;17.598;2023-06-22T08:09:53;100080.16;;;36.07;33.84
76603;BME280;65075;48.390;17.598;2023-06-22T08:12:20;100070.59;;;36.21;34.12
76603;BME280;65075;48.390;17.598;2023-06-22T08:14:47;100073.69;;;33.62;39.11
76603;BME280;65075;48.390;17.598;2023-06-22T08:17:13;100071.44;;;33.94;38.19
76603;BME280;65075;48.390;17.598;2023-06-22T08:19:40;100068.00;;;35.13;33.91
76603;BME280;65075;48.390;17.598;2023-06-22T08:22:08;100072.28;;;35.62;35.06
76603;BME280;65075;48.390;17.598;2023-06-22T08:24:36;100069.81;;;36.44;33.79
76603;BME280;65075;48.390;17.598;2023-06-22T08:27:01;100077.66;;;35.19;36.07
76603;BME280;65075;48.390;17.598;2023-06-22T08:29:29;100068.41;;;36.79;33.71
76603;BME280;65075;48.390;17.598;2023-06-22T08:31:55;100063.69;;;35.65;34.86
76603;BME280;65075;48.390;17.598;2023-06-22T08:34:22;100061.59;;;36.72;33.39
76603;BME280;65075;48.390;17.598;2023-06-22T08:36:48;100069.97;;;34.82;35.26
76603;BME280;65075;48.390;17.598;2023-06-22T08:39:19;100061.28;;;34.59;35.73
76603;BME280;65075;48.390;17.598;2023-06-22T08:41:47;100052.53;;;36.08;33.19
76603;BME280;65075;48.390;17.598;2023-06-22T08:44:18;100058.81;;;37.87;30.54
76603;BME280;65075;48.390;17.598;2023-06-22T08:46:45;100055.66;;;34.48;36.21
76603;BME280;65075;48.390;17.598;2023-06-22T08:49:14;100052.56;;;35.47;34.32
76603;BME280;65075;48.390;17.598;2023-06-22T08:51:42;100048.28;;;35.36;35.04
76603;BME280;65075;48.390;17.598;2023-06-22T08:54:07;100047.69;;;35.18;34.56
76603;BME280;65075;48.390;17.598;2023-06-22T08:56:34;100044.38;;;36.80;31.79
76603;BME280;65075;48.390;17.598;2023-06-22T08:59:01;100017.69;;;36.73;31.39
76603;BME280;65075;48.390;17.598;2023-06-22T09:01:28;100064.44;;;36.72;31.75
76603;BME280;65075;48.390;17.598;2023-06-22T09:03:55;100052.25;;;35.99;33.71
76603;BME280;65075;48.390;17.598;2023-06-22T09:06:24;100043.97;;;37.40;31.63
76603;BME280;65075;48.390;17.598;2023-06-22T09:08:52;100051.88;;;37.52;31.17
76603;BME280;65075;48.390;17.598;2023-06-22T09:11:19;100050.25;;;38.39;30.05
76603;BME280;65075;48.390;17.598;2023-06-22T09:13:46;100021.63;;;36.33;34.52
76603;BME280;65075;48.390;17.598;2023-06-22T09:16:13;100024.50;;;36.56;33.46
76603;BME280;65075;48.390;17.598;2023-06-22T09:18:40;100032.00;;;37.84;30.09
76603;BME280;65075;48.390;17.598;2023-06-22T09:21:08;100048.03;;;38.47;29.28
76603;BME280;65075;48.390;17.598;2023-06-22T09:23:35;100046.56;;;34.26;36.89
76603;BME280;65075;48.390;17.598;2023-06-22T09:26:01;100039.16;;;36.55;33.31
76603;BME280;65075;48.390;17.598;2023-06-22T09:28:29;100046.69;;;35.31;36.63
76603;BME280;65075;48.390;17.598;2023-06-22T09:30:56;100035.50;;;37.56;32.10
76603;BME280;65075;48.390;17.598;2023-06-22T09:33:25;100044.72;;;37.05;34.15
76603;BME280;65075;48.390;17.598;2023-06-22T09:35:53;100024.78;;;37.05;33.44
76603;BME280;65075;48.390;17.598;2023-06-22T09:38:19;100038.53;;;35.33;35.56
76603;BME280;65075;48.390;17.598;2023-06-22T09:40:46;100044.84;;;35.48;35.27
76603;BME280;65075;48.390;17.598;2023-06-22T09:43:13;100037.84;;;36.36;33.99
76603;BME280;65075;48.390;17.598;2023-06-22T09:45:40;100043.09;;;34.01;38.44
76603;BME280;65075;48.390;17.598;2023-06-22T09:48:07;100040.53;;;35.36;34.40
76603;BME280;65075;48.390;17.598;2023-06-22T09:50:34;99987.38;;;35.40;34.00
76603;BME280;65075;48.390;17.598;2023-06-22T09:53:01;100025.00;;;36.51;32.17
76603;BME280;65075;48.390;17.598;2023-06-22T09:55:28;100040.25;;;37.99;28.38
76603;BME280;65075;48.390;17.598;2023-06-22T09:57:55;100022.09;;;35.51;34.65
76603;BME280;65075;48.390;17.598;2023-06-22T10:00:22;100030.06;;;36.17;32.30
76603;BME280;65075;48.390;17.598;2023-06-22T10:02:49;100017.03;;;36.66;33.13
76603;BME280;65075;48.390;17.598;2023-06-22T10:05:20;100022.88;;;36.09;34.00
76603;BME280;65075;48.390;17.598;2023-06-22T10:07:47;100020.97;;;35.76;34.03
76603;BME280;65075;48.390;17.598;2023-06-22T10:10:15;100027.19;;;34.99;35.87
76603;BME280;65075;48.390;17.598;2023-06-22T10:12:57;100010.66;;;36.35;33.44
76603;BME280;65075;48.390;17.598;2023-06-22T10:15:24;100011.94;;;34.49;35.57
76603;BME280;65075;48.390;17.598;2023-06-22T10:17:52;100011.78;;;32.42;40.99
76603;BME280;65075;48.390;17.598;2023-06-22T10:20:19;99999.78;;;34.89;36.19
76603;BME280;65075;48.390;17.598;2023-06-22T10:22:47;100018.09;;;33.85;38.38
76603;BME280;65075;48.390;17.598;2023-06-22T10:25:13;100012.75;;;35.24;33.50
76603;BME280;65075;48.390;17.598;2023-06-22T10:27:40;100008.47;;;37.09;30.97
76603;BME280;65075;48.390;17.598;2023-06-22T10:30:07;99998.59;;;37.69;31.17
76603;BME280;65075;48.390;17.598;2023-06-22T10:32:34;100004.13;;;35.31;34.70
76603;BME280;65075;48.390;17.598;2023-06-22T10:35:01;100007.78;;;34.61;35.75
76603;BME280;65075;48.390;17.598;2023-06-22T10:37:28;99996.63;;;34.39;34.81
76603;BME280;65075;48.390;17.598;2023-06-22T10:39:55;99999.94;;;33.03;37.28
76603;BME280;65075;48.390;17.598;2023-06-22T10:42:21;99988.00;;;34.91;35.65
76603;BME280;65075;48.390;17.598;2023-06-22T10:44:48;99994.38;;;36.16;32.08
76603;BME280;65075;48.390;17.598;2023-06-22T10:47:15;100000.16;;;34.91;35.53
76603;BME280;65075;48.390;17.598;2023-06-22T10:49:42;99999.03;;;36.92;32.05
76603;BME280;65075;48.390;17.598;2023-06-22T10:52:09;99987.53;;;36.56;32.78
76603;BME280;65075;48.390;17.598;2023-06-22T10:54:37;99986.28;;;34.22;35.77
76603;BME280;65075;48.390;17.598;2023-06-22T10:57:04;99982.72;;;34.93;36.26
76603;BME280;65075;48.390;17.598;2023-06-22T10:59:31;99981.13;;;35.22;35.72
76603;BME280;65075;48.390;17.598;2023-06-22T11:01:58;99980.56;;;35.65;34.89
76603;BME280;65075;48.390;17.598;2023-06-22T11:04:25;99961.88;;;33.25;37.04
76603;BME280;65075;48.390;17.598;2023-06-22T11:06:52;99979.44;;;35.28;34.60
76603;BME280;65075;48.390;17.598;2023-06-22T11:09:18;99975.75;;;34.97;36.09
76603;BME280;65075;48.390;17.598;2023-06-22T11:11:50;99982.25;;;36.78;33.32
76603;BME280;65075;48.390;17.598;2023-06-22T11:14:17;99972.78;;;33.89;36.37
76603;BME280;65075;48.390;17.598;2023-06-22T11:16:42;99970.03;;;33.09;41.09
76603;BME280;65075;48.390;17.598;2023-06-22T11:19:09;99966.50;;;33.57;38.36
76603;BME280;65075;48.390;17.598;2023-06-22T11:21:36;99964.47;;;34.57;35.34
76603;BME280;65075;48.390;17.598;2023-06-22T11:24:02;99963.31;;;33.62;40.06
76603;BME280;65075;48.390;17.598;2023-06-22T11:26:29;99960.41;;;32.96;41.19
76603;BME280;65075;48.390;17.598;2023-06-22T11:28:56;99956.44;;;32.72;37.37
76603;BME280;65075;48.390;17.598;2023-06-22T11:31:22;99952.09;;;33.37;37.47
76603;BME280;65075;48.390;17.598;2023-06-22T11:33:50;99919.38;;;32.32;37.16
76603;BME280;65075;48.390;17.598;2023-06-22T11:36:16;99949.25;;;33.40;35.76
76603;BME280;65075;48.390;17.598;2023-06-22T11:38:42;99943.53;;;34.03;35.72
76603;BME280;65075;48.390;17.598;2023-06-22T11:41:13;99942.41;;;31.70;37.58
76603;BME280;65075;48.390;17.598;2023-06-22T11:43:39;99945.19;;;32.34;38.29
76603;BME280;65075;48.390;17.598;2023-06-22T11:46:07;99940.03;;;33.29;37.39
76603;BME280;65075;48.390;17.598;2023-06-22T11:48:34;99946.34;;;33.58;37.39
76603;BME280;65075;48.390;17.598;2023-06-22T11:51:02;99949.16;;;34.06;35.69
76603;BME280;65075;48.390;17.598;2023-06-22T11:53:30;99941.69;;;35.01;34.53
76603;BME280;65075;48.390;17.598;2023-06-22T11:55:56;99945.09;;;34.11;36.90
76603;BME280;65075;48.390;17.598;2023-06-22T11:58:23;99945.25;;;32.05;39.37
76603;BME280;65075;48.390;17.598;2023-06-22T12:00:50;99933.06;;;32.58;40.43
76603;BME280;65075;48.390;17.598;2023-06-22T12:03:19;99925.75;;;34.43;36.97
76603;BME280;65075;48.390;17.598;2023-06-22T12:05:49;99930.81;;;33.77;39.27
76603;BME280;65075;48.390;17.598;2023-06-22T12:08:17;99933.50;;;33.39;38.81
76603;BME280;65075;48.390;17.598;2023-06-22T12:10:46;99933.38;;;33.61;36.71
76603;BME280;65075;48.390;17.598;2023-06-22T12:13:13;99930.44;;;34.19;35.91
76603;BME280;65075;48.390;17.598;2023-06-22T12:15:40;99917.94;;;33.69;38.06
76603;BME280;65075;48.390;17.598;2023-06-22T12:18:07;99921.75;;;32.51;39.15
76603;BME280;65075;48.390;17.598;2023-06-22T12:20:35;99901.56;;;32.66;38.82
76603;BME280;65075;48.390;17.598;2023-06-22T12:23:01;99923.09;;;33.22;38.21
76603;BME280;65075;48.390;17.598;2023-06-22T12:25:28;99914.59;;;31.86;40.10
76603;BME280;65075;48.390;17.598;2023-06-22T12:27:55;99909.38;;;33.21;37.48
76603;BME280;65075;48.390;17.598;2023-06-22T12:30:22;99879.84;;;32.28;38.14
76603;BME280;65075;48.390;17.598;2023-06-22T12:32:49;99912.13;;;33.86;38.02
76603;BME280;65075;48.390;17.598;2023-06-22T12:35:17;99908.78;;;32.71;37.81
76603;BME280;65075;48.390;17.598;2023-06-22T12:37:43;99900.88;;;33.24;35.76
76603;BME280;65075;48.390;17.598;2023-06-22T12:40:10;99899.41;;;33.61;36.72
76603;BME280;65075;48.390;17.598;2023-06-22T12:42:39;99893.38;;;34.78;35.61
76603;BME280;65075;48.390;17.598;2023-06-22T12:45:08;99900.81;;;35.25;35.32
76603;BME280;65075;48.390;17.598;2023-06-22T12:47:35;99894.19;;;35.35;34.04
76603;BME280;65075;48.390;17.598;2023-06-22T12:50:01;99896.72;;;33.39;38.28
76603;BME280;65075;48.390;17.598;2023-06-22T12:52:30;99896.50;;;34.87;35.05